Time;durP1;ratioP1;P1;durP2;ratioP2;P2;SDS_P1;SDS_P2;PMS_P1;PMS_P2;Temp;Humidity;BMP_temperature;BMP_pressure;BME280_temperature;BME280_humidity;BME280_pressure;Samples;Min_cycle;Max_cycle;Signal;HPM_P1;HPM_P2
2023/10/25 00:01:00;;;;;;;11.10;5.70;;;;;;;11.20;64.41;100227.98;104761;1267;59414;-55
2023/10/25 00:03:28;;;;;;;23.80;16.80;;;;;;;11.30;64.19;100225.70;105214;1265;59141;-53
2023/10/25 00:05:55;;;;;;;20.50;16.00;;;;;;;11.40;64.18;100222.20;105371;1264;62026;-53
2023/10/25 00:08:23;;;;;;;24.40;16.60;;;;;;;11.47;64.09;100215.84;104826;1262;61334;-53
2023/10/25 00:10:51;;;;;;;13.90;6.80;;;;;;;11.52;64.14;100213.42;104786;1261;63691;-53
2023/10/25 00:13:18;;;;;;;22.90;15.70;;;;;;;11.57;64.03;100209.59;104580;1262;59653;-52
2023/10/25 00:15:46;;;;;;;20.00;14.90;;;;;;;11.58;63.95;100205.20;104845;1265;59671;-53
2023/10/25 00:18:14;;;;;;;23.00;14.80;;;;;;;11.59;63.95;100202.81;105017;1263;63287;-52
2023/10/25 00:20:41;;;;;;;19.50;13.30;;;;;;;11.63;63.67;100201.08;104778;1260;61738;-52
2023/10/25 00:23:09;;;;;;;20.60;14.40;;;;;;;11.69;63.61;100202.34;104771;1261;63785;-50
2023/10/25 00:25:36;;;;;;;12.40;6.00;;;;;;;11.74;63.57;100198.04;105024;1263;59654;-52
2023/10/25 00:28:04;;;;;;;20.90;14.30;;;;;;;11.77;63.57;100193.92;104851;1263;60174;-52
2023/10/25 00:30:32;;;;;;;16.80;13.30;;;;;;;11.80;63.70;100187.11;104724;1263;64180;-52
2023/10/25 00:32:59;;;;;;;24.30;15.60;;;;;;;11.84;63.64;100180.11;105201;1265;61325;-52
2023/10/25 00:35:27;;;;;;;12.10;7.10;;;;;;;11.88;63.43;100170.05;104706;1266;62494;-51
2023/10/25 00:37:55;;;;;;;19.90;15.70;;;;;;;11.91;63.14;100164.90;104857;1264;59645;-53
2023/10/25 00:40:23;;;;;;;20.60;14.80;;;;;;;11.92;62.90;100159.89;104812;1265;59847;-52
2023/10/25 00:42:51;;;;;;;17.90;14.00;;;;;;;11.96;62.55;100152.34;105359;1265;64150;-53
2023/10/25 00:45:18;;;;;;;20.10;14.50;;;;;;;11.99;62.21;100148.06;104789;1266;61541;-54
2023/10/25 00:47:46;;;;;;;22.30;15.00;;;;;;;11.99;62.06;100151.42;104768;1273;64219;-52
2023/10/25 00:50:17;;;;;;;21.50;14.80;;;;;;;11.97;62.07;100151.00;104730;1265;59644;-51
2023/10/25 00:52:44;;;;;;;19.20;15.10;;;;;;;11.95;61.91;100145.04;104935;1261;59816;-51
2023/10/25 00:55:12;;;;;;;17.80;13.80;;;;;;;11.91;61.89;100141.34;104686;1266;73028;-51
2023/10/25 00:57:40;;;;;;;20.20;14.80;;;;;;;11.90;61.85;100139.86;104715;1263;61361;-52
2023/10/25 01:00:08;;;;;;;11.70;5.60;;;;;;;11.88;61.81;100140.70;104887;1265;63680;-50
2023/10/25 01:02:36;;;;;;;17.90;13.20;;;;;;;11.91;61.66;100144.00;104983;1264;59672;-51
2023/10/25 01:05:05;;;;;;;17.00;13.10;;;;;;;11.98;61.73;100141.95;104768;1267;59574;-51
2023/10/25 01:07:32;;;;;;;21.60;13.50;;;;;;;12.04;61.76;100134.02;105196;1264;64202;-53
2023/10/25 01:10:02;;;;;;;21.20;15.40;;;;;;;12.10;61.77;100129.54;105216;1263;61478;-51
2023/10/25 01:12:30;;;;;;;24.80;15.80;;;;;;;12.14;61.66;100126.17;105201;1266;63852;-52
2023/10/25 01:14:57;;;;;;;20.70;15.20;;;;;;;12.07;61.58;100123.61;104779;1263;59943;-51
2023/10/25 01:17:25;;;;;;;21.90;15.90;;;;;;;12.11;61.30;100125.02;104768;1265;59622;-50
2023/10/25 01:19:53;;;;;;;14.70;6.60;;;;;;;11.98;61.37;100123.89;104799;1265;64649;-51
2023/10/25 01:22:25;;;;;;;22.00;17.30;;;;;;;11.90;61.39;100118.78;104740;1263;61373;-49
2023/10/25 01:24:52;;;;;;;22.90;17.70;;;;;;;11.83;61.40;100115.36;104849;1263;62469;-51
2023/10/25 01:27:20;;;;;;;23.70;16.90;;;;;;;11.81;61.34;100113.42;104817;1264;59747;-51
2023/10/25 01:29:47;;;;;;;23.40;16.70;;;;;;;11.82;61.32;100111.76;104913;1265;59663;-51
2023/10/25 01:32:15;;;;;;;20.70;15.90;;;;;;;11.81;61.28;100111.98;104844;1265;64219;-50
2023/10/25 01:34:43;;;;;;;25.00;17.70;;;;;;;11.81;61.40;100110.27;104831;1266;60240;-53
2023/10/25 01:37:10;;;;;;;17.50;7.90;;;;;;;11.80;61.37;100110.89;104767;1276;63739;-51
2023/10/25 01:39:38;;;;;;;23.90;17.80;;;;;;;11.76;61.37;100107.16;105169;1273;59802;-51
2023/10/25 01:42:07;;;;;;;25.90;19.50;;;;;;;11.70;61.46;100103.48;104851;1266;59571;-47
2023/10/25 01:44:34;;;;;;;23.60;17.00;;;;;;;11.68;61.58;100104.91;104795;1264;64141;-52
2023/10/25 01:47:02;;;;;;;20.20;15.60;;;;;;;11.69;61.59;100099.34;104738;1266;62013;-52
2023/10/25 01:49:30;;;;;;;21.10;16.70;;;;;;;11.74;61.76;100094.20;105200;1266;63686;-51
2023/10/25 01:51:57;;;;;;;22.60;16.50;;;;;;;11.77;61.76;100093.91;105251;1261;59649;-51
2023/10/25 01:54:26;;;;;;;27.00;17.00;;;;;;;11.77;61.83;100090.60;104772;1267;60511;-52
2023/10/25 01:56:53;;;;;;;24.10;17.50;;;;;;;11.77;62.02;100087.73;104732;1267;64154;-51
2023/10/25 01:59:21;;;;;;;25.60;17.30;;;;;;;11.77;62.00;100086.17;104770;1268;60276;-51
2023/10/25 02:01:48;;;;;;;21.80;15.20;;;;;;;11.75;62.12;100077.04;104698;1269;64386;-51
2023/10/25 02:04:16;;;;;;;14.30;6.10;;;;;;;11.80;62.14;100077.67;104806;1267;59770;-52
2023/10/25 02:06:45;;;;;;;21.50;14.60;;;;;;;11.89;62.10;100075.31;104748;1267;59662;-54
2023/10/25 02:09:13;;;;;;;19.30;15.10;;;;;;;11.94;62.03;100073.79;104852;1261;62909;-52
2023/10/25 02:11:40;;;;;;;25.10;15.80;;;;;;;11.97;62.06;100072.98;104626;1265;61349;-52
2023/10/25 02:14:08;;;;;;;23.20;16.10;;;;;;;11.98;62.11;100071.48;104836;1263;62554;-53
2023/10/25 02:16:36;;;;;;;22.40;15.90;;;;;;;11.99;62.19;100065.83;104576;1263;60426;-50
2023/10/25 02:19:03;;;;;;;23.10;15.80;;;;;;;11.99;62.23;100067.19;104798;1267;59616;-52
2023/10/25 02:21:37;;;;;;;21.30;15.60;;;;;;;11.98;62.11;100063.74;104621;1268;64175;-51
2023/10/25 02:24:05;;;;;;;21.50;15.00;;;;;;;11.97;62.12;100055.77;105089;1263;62011;-52
2023/10/25 02:26:34;;;;;;;20.60;14.00;;;;;;;12.01;62.05;100049.03;105063;1267;64178;-54
2023/10/25 02:29:02;;;;;;;19.80;14.20;;;;;;;12.06;61.83;100043.80;104816;1269;59622;-49
2023/10/25 02:31:29;;;;;;;21.20;15.80;;;;;;;12.06;61.72;100042.64;104809;1265;59576;-49
2023/10/25 02:33:57;;;;;;;22.40;16.00;;;;;;;12.04;61.88;100046.99;104733;1270;66193;-50
2023/10/25 02:36:25;;;;;;;21.10;15.10;;;;;;;12.04;61.80;100043.14;104734;1266;60225;-51
2023/10/25 02:38:53;;;;;;;22.20;16.10;;;;;;;12.03;61.64;100044.30;104796;1266;62909;-51
2023/10/25 02:41:20;;;;;;;18.00;15.00;;;;;;;12.00;61.56;100045.35;104726;1263;60107;-52
2023/10/25 02:43:50;;;;;;;19.70;14.80;;;;;;;11.92;61.60;100048.64;104799;1266;59571;-52
2023/10/25 02:46:18;;;;;;;19.40;14.50;;;;;;;11.94;61.67;100039.19;104699;1268;64143;-51
2023/10/25 02:48:46;;;;;;;24.70;15.00;;;;;;;11.98;61.54;100026.73;104718;1265;60274;-51
2023/10/25 02:51:14;;;;;;;21.80;15.80;;;;;;;12.00;61.44;100029.66;104652;1266;62450;-51
2023/10/25 02:53:41;;;;;;;21.20;16.00;;;;;;;12.00;61.49;100024.57;104871;1266;59831;-52
2023/10/25 02:56:09;;;;;;;21.80;16.10;;;;;;;11.98;61.45;100019.67;104574;1268;59769;-53
2023/10/25 02:58:37;;;;;;;20.80;16.30;;;;;;;11.95;61.47;100023.05;104657;1269;62841;-53
2023/10/25 03:01:05;;;;;;;23.90;16.80;;;;;;;11.93;61.56;100019.77;104707;1266;61432;-52
2023/10/25 03:03:33;;;;;;;22.20;14.30;;;;;;;11.90;61.63;100018.39;104962;1263;63831;-52
2023/10/25 03:06:01;;;;;;;17.30;12.70;;;;;;;11.90;61.71;100012.94;105050;1266;59740;-52
2023/10/25 03:08:30;;;;;;;20.20;12.60;;;;;;;11.97;61.78;100005.34;105193;1266;59762;-51
2023/10/25 03:10:57;;;;;;;22.40;14.00;;;;;;;12.01;61.75;100004.77;105228;1266;62841;-50
2023/10/25 03:13:25;;;;;;;17.60;13.00;;;;;;;12.05;61.72;99996.62;104732;1266;61835;-50
2023/10/25 03:15:53;;;;;;;20.00;13.90;;;;;;;12.08;61.81;99984.81;105373;1267;63949;-52
2023/10/25 03:18:21;;;;;;;17.10;13.00;;;;;;;12.11;61.83;99984.52;104861;1267;59650;-52
2023/10/25 03:20:49;;;;;;;11.00;5.80;;;;;;;12.12;61.82;99984.98;104785;1264;60960;-50
2023/10/25 03:23:16;;;;;;;17.80;13.00;;;;;;;12.10;61.88;99978.82;104805;1262;64128;-51
2023/10/25 03:25:44;;;;;;;18.20;13.50;;;;;;;12.07;62.01;99976.99;104855;1266;61882;-50
2023/10/25 03:28:11;;;;;;;17.70;11.90;;;;;;;12.10;62.05;99975.45;104775;1267;63757;-52
2023/10/25 03:30:39;;;;;;;18.70;12.80;;;;;;;12.14;62.06;99976.36;104896;1261;59673;-52
2023/10/25 03:33:07;;;;;;;17.70;12.10;;;;;;;12.18;62.16;99978.60;104728;1267;59570;-51
2023/10/25 03:35:35;;;;;;;17.60;12.60;;;;;;;12.19;62.08;99972.39;104685;1267;62816;-52
2023/10/25 03:38:02;;;;;;;19.40;12.70;;;;;;;12.17;62.21;99968.47;105164;1267;62055;-51
2023/10/25 03:40:30;;;;;;;18.20;12.70;;;;;;;12.19;62.34;99972.73;104756;1266;64338;-50
2023/10/25 03:42:57;;;;;;;16.50;12.50;;;;;;;12.16;62.36;99966.09;104736;1267;59675;-51
2023/10/25 03:45:25;;;;;;;18.60;12.90;;;;;;;12.11;62.32;99966.02;104871;1267;59808;-50
2023/10/25 03:47:53;;;;;;;17.40;12.10;;;;;;;12.07;62.55;99962.92;104797;1264;64081;-51
2023/10/25 03:50:21;;;;;;;17.40;12.90;;;;;;;12.09;62.70;99964.30;104760;1264;61357;-50
2023/10/25 03:52:49;;;;;;;20.50;12.00;;;;;;;12.13;62.74;99962.73;104902;1266;62488;-51
2023/10/25 03:55:17;;;;;;;20.80;13.50;;;;;;;12.16;62.81;99964.23;104722;1267;60479;-50
2023/10/25 03:57:44;;;;;;;19.40;13.70;;;;;;;12.16;63.05;99961.75;104561;1264;60669;-52
2023/10/25 04:00:15;;;;;;;19.20;13.90;;;;;;;12.16;63.16;99960.70;104779;1261;64950;-50
2023/10/25 04:02:42;;;;;;;17.40;13.60;;;;;;;12.15;63.33;99956.53;104967;1266;60540;-55
2023/10/25 04:05:10;;;;;;;19.80;13.80;;;;;;;12.14;63.31;99958.77;104907;1263;63977;-53
2023/10/25 04:07:39;;;;;;;17.00;13.50;;;;;;;12.08;63.52;99961.77;105757;1267;60568;-52
2023/10/25 04:10:07;;;;;;;20.20;13.30;;;;;;;12.06;63.54;99961.56;105363;1265;60339;-51
2023/10/25 04:12:35;;;;;;;19.70;13.60;;;;;;;12.07;63.63;99956.89;104676;1267;65655;-54
2023/10/25 04:15:03;;;;;;;16.00;12.90;;;;;;;12.09;63.80;99952.03;104754;1264;61466;-50
2023/10/25 04:17:30;;;;;;;18.70;14.40;;;;;;;12.07;63.87;99951.29;105204;1265;62436;-52
2023/10/25 04:19:58;;;;;;;20.00;14.50;;;;;;;12.06;63.98;99950.52;104734;1266;60594;-52
2023/10/25 04:22:25;;;;;;;20.30;14.00;;;;;;;12.04;64.15;99944.13;104697;1268;60495;-52
2023/10/25 04:24:53;;;;;;;18.40;14.40;;;;;;;12.01;64.17;99941.28;104793;1266;65047;-52
2023/10/25 04:27:21;;;;;;;20.80;13.50;;;;;;;11.98;64.51;99937.73;104648;1263;60572;-53
2023/10/25 04:29:48;;;;;;;18.30;12.90;;;;;;;11.99;64.41;99938.20;104762;1267;63779;-52
2023/10/25 04:32:16;;;;;;;17.90;13.10;;;;;;;12.00;64.36;99940.02;105362;1264;60496;-57
2023/10/25 04:34:44;;;;;;;20.60;13.60;;;;;;;12.00;64.50;99940.20;105490;1265;61043;-52
2023/10/25 04:37:13;;;;;;;17.60;14.10;;;;;;;12.00;64.70;99939.50;104650;1264;63880;-50
2023/10/25 04:39:41;;;;;;;19.20;13.80;;;;;;;12.00;64.96;99936.81;105359;1264;60489;-50
2023/10/25 04:42:09;;;;;;;19.30;14.00;;;;;;;11.98;64.96;99936.48;104698;1266;63771;-51
2023/10/25 04:44:37;;;;;;;21.30;14.70;;;;;;;11.93;65.19;99937.85;104577;1267;60512;-50
2023/10/25 04:47:04;;;;;;;18.80;13.30;;;;;;;11.95;65.30;99939.24;104654;1261;60564;-52
2023/10/25 04:49:32;;;;;;;17.20;13.40;;;;;;;11.98;65.40;99936.82;104602;1267;64908;-49
2023/10/25 04:51:59;;;;;;;19.50;14.10;;;;;;;12.00;65.71;99928.95;108599;1264;60271;-52
2023/10/25 04:54:27;;;;;;;21.30;14.20;;;;;;;12.02;65.81;99921.74;108695;1262;63729;-52
2023/10/25 04:56:55;;;;;;;21.20;16.20;;;;;;;12.04;65.94;99918.38;108740;1260;58635;-46
2023/10/25 04:59:22;;;;;;;20.60;14.90;;;;;;;12.04;66.06;99912.21;108740;1261;58466;-52
2023/10/25 05:01:50;;;;;;;25.10;15.00;;;;;;;12.06;66.06;99903.02;108611;1260;64916;-52
2023/10/25 05:04:17;;;;;;;17.70;13.70;;;;;;;12.12;66.19;99893.94;108692;1260;60154;-53
2023/10/25 05:06:46;;;;;;;20.00;13.80;;;;;;;12.19;66.10;99886.76;108643;1260;63854;-52
2023/10/25 05:09:15;;;;;;;20.20;14.80;;;;;;;12.27;66.16;99882.96;107210;1262;60562;-51
2023/10/25 05:11:45;;;;;;;22.00;14.60;;;;;;;12.32;66.21;99875.67;104746;1264;60539;-51
2023/10/25 05:14:12;;;;;;;19.80;15.30;;;;;;;12.31;66.23;99869.59;104859;1261;63742;-53
2023/10/25 05:16:45;;;;;;;21.60;15.40;;;;;;;12.30;66.46;99864.40;104907;1260;62017;-55
2023/10/25 05:19:14;;;;;;;23.90;15.90;;;;;;;12.29;66.64;99861.34;104781;1264;65862;-54
2023/10/25 05:21:43;;;;;;;19.60;14.40;;;;;;;12.35;67.11;99858.13;105101;1262;61704;-53
2023/10/25 05:24:11;;;;;;;19.80;13.90;;;;;;;12.39;67.23;99863.46;104868;1264;60568;-55
2023/10/25 05:26:40;;;;;;;17.40;13.60;;;;;;;12.47;67.26;99859.66;104763;1262;63712;-54
2023/10/25 05:29:08;;;;;;;18.40;13.60;;;;;;;12.52;67.28;99857.39;105055;1264;60251;-53
2023/10/25 05:31:35;;;;;;;21.00;14.50;;;;;;;12.56;67.29;99852.63;104936;1262;63788;-53
2023/10/25 05:34:03;;;;;;;21.50;14.40;;;;;;;12.56;67.29;99844.28;104533;1267;60495;-54
2023/10/25 05:36:31;;;;;;;17.70;14.00;;;;;;;12.56;67.29;99840.32;105073;1260;60544;-52
2023/10/25 05:39:02;;;;;;;17.70;13.00;;;;;;;12.58;67.26;99835.48;105231;1260;64896;-50
2023/10/25 05:41:31;;;;;;;17.90;12.70;;;;;;;12.59;67.14;99832.76;104745;1267;61813;-53
2023/10/25 05:44:04;;;;;;;18.50;13.90;;;;;;;12.59;67.08;99830.63;105503;1267;62465;-53
2023/10/25 05:46:33;;;;;;;18.50;13.60;;;;;;;12.59;67.22;99829.73;105967;1260;60566;-53
2023/10/25 05:49:06;;;;;;;19.10;13.70;;;;;;;12.57;67.23;99819.91;105756;1265;60399;-51
2023/10/25 05:51:35;;;;;;;18.50;13.40;;;;;;;12.52;67.31;99813.06;105832;1265;64124;-55
2023/10/25 05:54:04;;;;;;;17.50;13.30;;;;;;;12.49;67.48;99807.75;105354;1262;60524;-52
2023/10/25 05:56:32;;;;;;;18.80;13.60;;;;;;;12.50;67.39;99800.55;105050;1260;62670;-51
2023/10/25 05:59:00;;;;;;;19.90;13.50;;;;;;;12.52;67.32;99790.20;105325;1266;60569;-52
2023/10/25 06:01:49;;;;;;;21.20;13.70;;;;;;;12.52;67.50;99786.34;105275;1265;61636;-52
2023/10/25 06:04:19;;;;;;;17.40;13.50;;;;;;;12.51;67.55;99781.14;105541;1266;65012;-52
2023/10/25 06:06:47;;;;;;;18.00;14.10;;;;;;;12.48;67.81;99773.90;104781;1267;61467;-54
2023/10/25 06:09:14;;;;;;;18.50;13.30;;;;;;;12.44;67.76;99768.53;105382;1261;62486;-51
2023/10/25 06:11:42;;;;;;;16.70;13.10;;;;;;;12.46;67.74;99765.55;104646;1262;60515;-53
2023/10/25 06:14:10;;;;;;;16.00;12.40;;;;;;;12.49;67.76;99759.52;104793;1263;60476;-53
2023/10/25 06:16:38;;;;;;;21.10;14.00;;;;;;;12.48;67.84;99753.78;104823;1267;65584;-54
2023/10/25 06:19:06;;;;;;;22.60;13.40;;;;;;;12.46;68.03;99753.40;104715;1261;61616;-53
2023/10/25 06:21:34;;;;;;;18.30;13.10;;;;;;;12.42;68.35;99744.33;104703;1265;62561;-52
2023/10/25 06:24:02;;;;;;;17.00;11.70;;;;;;;12.40;68.58;99743.45;104637;1262;60981;-52
2023/10/25 06:26:29;;;;;;;15.70;12.00;;;;;;;12.42;68.67;99742.77;106901;1261;62894;-51
2023/10/25 06:28:57;;;;;;;14.90;11.30;;;;;;;12.43;68.50;99739.63;104714;1265;65046;-52
2023/10/25 06:31:24;;;;;;;17.70;11.60;;;;;;;12.45;68.59;99736.97;105124;1257;61519;-51
2023/10/25 06:33:52;;;;;;;16.50;13.40;;;;;;;12.48;68.81;99728.62;105007;1257;62585;-52
2023/10/25 06:36:20;;;;;;;17.20;12.50;;;;;;;12.48;68.95;99721.92;105035;1259;61035;-61
2023/10/25 06:38:48;;;;;;;23.20;13.20;;;;;;;12.49;68.96;99716.28;105150;1260;60610;-60
2023/10/25 06:41:23;;;;;;;14.90;11.50;;;;;;;12.50;69.12;99712.50;105905;1257;63656;-61
2023/10/25 06:43:53;;;;;;;18.50;11.30;;;;;;;12.54;68.95;99709.21;105874;1254;61287;-59
2023/10/25 06:46:22;;;;;;;15.40;11.00;;;;;;;12.58;68.83;99706.84;106065;1254;66377;-62
2023/10/25 06:48:52;;;;;;;13.60;11.00;;;;;;;12.64;68.94;99706.13;105386;1254;60623;-63
2023/10/25 06:51:20;;;;;;;15.70;11.20;;;;;;;12.68;69.13;99698.33;105559;1252;60477;-60
2023/10/25 06:53:48;;;;;;;16.00;11.40;;;;;;;12.66;68.99;99698.48;105422;1254;63648;-58
2023/10/25 06:56:16;;;;;;;17.50;10.90;;;;;;;12.63;69.17;99698.83;106908;1253;61541;-60
2023/10/25 06:58:44;;;;;;;13.10;9.90;;;;;;;12.66;69.12;99694.33;105606;1257;62491;-64
2023/10/25 07:01:17;;;;;;;14.30;9.80;;;;;;;12.72;69.02;99693.91;106642;1252;59236;-60
2023/10/25 07:03:46;;;;;;;15.80;10.50;;;;;;;12.75;69.10;99691.52;107193;1257;60420;-61
2023/10/25 07:06:16;;;;;;;15.60;10.40;;;;;;;12.75;69.19;99686.17;106422;1252;63903;-59
2023/10/25 07:08:45;;;;;;;13.40;10.60;;;;;;;12.77;69.32;99683.84;106226;1252;61725;-63
2023/10/25 07:11:13;;;;;;;12.60;9.40;;;;;;;12.76;69.37;99687.10;105442;1254;64250;-60
2023/10/25 07:13:40;;;;;;;13.80;9.20;;;;;;;12.79;69.35;99684.33;105287;1256;60153;-62
2023/10/25 07:16:08;;;;;;;12.70;9.20;;;;;;;12.85;69.22;99677.13;105296;1257;60528;-63
2023/10/25 07:18:36;;;;;;;14.20;10.10;;;;;;;12.89;69.15;99677.95;105243;1254;64889;-60
2023/10/25 07:21:06;;;;;;;12.40;9.90;;;;;;;12.91;69.29;99676.54;105163;1257;61993;-60
2023/10/25 07:23:34;;;;;;;12.70;10.40;;;;;;;12.90;69.39;99680.08;105450;1254;62554;-60
2023/10/25 07:26:02;;;;;;;13.20;9.60;;;;;;;12.90;69.30;99677.60;105294;1256;60452;-61
2023/10/25 07:28:29;;;;;;;13.70;8.70;;;;;;;12.92;69.16;99677.77;105742;1254;60505;-62
2023/10/25 07:30:57;;;;;;;11.90;8.40;;;;;;;12.94;69.10;99669.31;105260;1257;64941;-60
2023/10/25 07:33:24;;;;;;;12.80;9.00;;;;;;;12.96;69.22;99667.50;105945;1256;60452;-62
2023/10/25 07:35:52;;;;;;;13.50;9.60;;;;;;;12.98;69.26;99670.20;105383;1253;63717;-61
2023/10/25 07:38:20;;;;;;;12.10;9.30;;;;;;;12.97;69.35;99665.13;105297;1257;61227;-61
2023/10/25 07:40:49;;;;;;;14.50;9.30;;;;;;;12.97;69.68;99661.61;105505;1255;62571;-63
2023/10/25 07:43:17;;;;;;;34.60;17.10;;;;;;;13.02;69.53;99665.03;105355;1254;64946;-62
2023/10/25 07:45:44;;;;;;;11.60;8.30;;;;;;;13.07;69.35;99662.52;105227;1254;60538;-64
2023/10/25 07:48:12;;;;;;;10.60;7.90;;;;;;;13.11;69.49;99656.64;105274;1254;63831;-60
2023/10/25 07:50:40;;;;;;;10.20;7.70;;;;;;;13.14;69.62;99658.27;105144;1257;61779;-61
2023/10/25 07:53:08;;;;;;;11.10;7.50;;;;;;;13.13;69.53;99659.95;105335;1254;60719;-64
2023/10/25 07:55:40;;;;;;;11.40;7.50;;;;;;;13.10;69.60;99661.02;105279;1254;64936;-62
2023/10/25 07:58:22;;;;;;;14.30;7.60;;;;;;;13.13;69.76;99657.53;108790;1253;72742;-86
2023/10/25 08:00:55;;;;;;;6.90;3.50;;;;;;;13.21;69.51;99656.71;108835;1261;71411;-82
2023/10/25 08:03:24;;;;;;;10.90;7.30;;;;;;;13.24;69.30;99654.19;106491;1253;74587;-63
2023/10/25 08:05:54;;;;;;;11.20;8.40;;;;;;;13.24;69.51;99650.48;105017;1256;60353;-53
2023/10/25 08:08:22;;;;;;;10.20;7.60;;;;;;;13.24;69.57;99650.65;108937;1256;64920;-57
2023/10/25 08:10:58;;;;;;;11.40;7.80;;;;;;;13.22;69.65;99652.10;105804;1260;62754;-56
2023/10/25 08:13:26;;;;;;;11.10;7.60;;;;;;;13.19;69.60;99651.74;105507;1261;63865;-59
2023/10/25 08:15:57;;;;;;;10.90;7.00;;;;;;;13.22;69.59;99653.77;105098;1259;60601;-59
2023/10/25 08:18:29;;;;;;;10.20;7.70;;;;;;;13.26;69.58;99646.52;105522;1256;60310;-57
2023/10/25 08:20:57;;;;;;;10.10;7.40;;;;;;;13.33;69.57;99649.52;108947;1256;72609;-58
2023/10/25 08:23:28;;;;;;;9.70;7.00;;;;;;;13.37;69.57;99645.62;107114;1260;62505;-58
2023/10/25 08:26:00;;;;;;;10.60;7.30;;;;;;;13.37;69.63;99639.39;106391;1259;62544;-58
2023/10/25 08:28:28;;;;;;;9.50;6.80;;;;;;;13.38;69.49;99631.18;105335;1258;60447;-57
2023/10/25 08:30:55;;;;;;;11.80;6.60;;;;;;;13.40;69.21;99631.54;104816;1262;60349;-56
2023/10/25 08:33:23;;;;;;;8.50;6.40;;;;;;;13.42;69.18;99624.67;104943;1257;63739;-57
2023/10/25 08:36:04;;;;;;;10.00;6.70;;;;;;;13.45;69.22;99625.73;108964;1256;63693;-58
2023/10/25 08:38:32;;;;;;;10.00;7.40;;;;;;;13.46;69.34;99622.48;108940;1256;66704;-60
2023/10/25 08:41:07;;;;;;;9.20;6.60;;;;;;;13.48;69.38;99614.38;109005;1256;58394;-59
2023/10/25 08:43:36;;;;;;;10.60;6.70;;;;;;;13.48;69.38;99615.27;105546;1261;60364;-58
2023/10/25 08:46:05;;;;;;;9.10;6.20;;;;;;;13.47;69.22;99610.98;107097;1259;65139;-59
2023/10/25 08:48:35;;;;;;;9.80;5.70;;;;;;;13.49;69.02;99606.45;105422;1262;62264;-60
2023/10/25 08:51:05;;;;;;;9.00;6.20;;;;;;;13.51;68.86;99606.06;105289;1261;65016;-54
2023/10/25 08:53:36;;;;;;;9.50;6.30;;;;;;;13.52;68.87;99600.48;105562;1256;60543;-59
2023/10/25 08:56:04;;;;;;;9.80;6.30;;;;;;;13.50;68.93;99593.27;105520;1262;60513;-61
2023/10/25 08:58:32;;;;;;;7.50;5.40;;;;;;;13.48;69.09;99594.09;105080;1262;67352;-59
2023/10/25 09:01:02;;;;;;;9.80;6.60;;;;;;;13.46;69.18;99594.48;105272;1257;63350;-58
2023/10/25 09:03:30;;;;;;;8.30;5.80;;;;;;;13.47;69.27;99592.05;106027;1256;66312;-59
2023/10/25 09:06:02;;;;;;;8.80;5.50;;;;;;;13.51;69.18;99589.52;105538;1256;60503;-60
2023/10/25 09:08:31;;;;;;;7.40;5.60;;;;;;;13.54;69.21;99580.73;104948;1256;60486;-59
2023/10/25 09:11:03;;;;;;;8.70;6.30;;;;;;;13.55;69.43;99569.18;106315;1262;63705;-60
2023/10/25 09:13:32;;;;;;;11.00;6.60;;;;;;;13.55;69.36;99565.52;105557;1256;61350;-59
2023/10/25 09:16:04;;;;;;;8.30;5.60;;;;;;;13.55;69.49;99563.19;105584;1259;63825;-60
2023/10/25 09:18:34;;;;;;;7.10;4.40;;;;;;;13.62;69.27;99554.88;106501;1259;60595;-59
2023/10/25 09:21:03;;;;;;;8.40;4.70;;;;;;;13.67;68.96;99548.70;106401;1256;61946;-64
2023/10/25 09:23:40;;;;;;;7.90;5.00;;;;;;;13.67;68.91;99546.09;105380;1258;64113;-59
2023/10/25 09:26:16;;;;;;;9.00;4.80;;;;;;;13.66;69.09;99537.14;105279;1262;60447;-61
2023/10/25 09:28:45;;;;;;;9.20;5.70;;;;;;;13.66;69.16;99529.44;105118;1262;63906;-60
2023/10/25 09:31:22;;;;;;;8.20;5.10;;;;;;;13.65;69.32;99528.80;105301;1262;61309;-60
2023/10/25 09:33:50;;;;;;;6.70;4.60;;;;;;;13.65;69.25;99524.77;106654;1258;60490;-58
2023/10/25 09:36:21;;;;;;;8.10;4.60;;;;;;;13.68;69.20;99527.00;105801;1259;65399;-59
2023/10/25 09:38:50;;;;;;;8.00;4.80;;;;;;;13.70;69.01;99520.19;105176;1262;60487;-59
2023/10/25 09:41:18;;;;;;;6.60;4.60;;;;;;;13.69;69.02;99510.07;105938;1257;63837;-59
2023/10/25 09:43:47;;;;;;;7.20;4.90;;;;;;;13.66;69.05;99500.02;105156;1256;60574;-59
2023/10/25 09:46:20;;;;;;;7.80;5.50;;;;;;;13.61;69.14;99494.40;106832;1257;60545;-60
2023/10/25 09:49:05;;;;;;;9.20;5.50;;;;;;;13.56;69.27;99491.01;105065;1256;67067;-60
2023/10/25 09:51:35;;;;;;;9.10;4.90;;;;;;;13.56;69.34;99489.95;105335;1262;61812;-59
2023/10/25 09:54:10;;;;;;;8.40;5.00;;;;;;;13.60;69.44;99480.58;104911;1259;63775;-61
2023/10/25 09:56:37;;;;;;;8.20;5.00;;;;;;;13.66;69.54;99480.46;105288;1259;60454;-59
2023/10/25 09:59:11;;;;;;;7.70;5.20;;;;;;;13.68;69.49;99478.16;105078;1260;60435;-59
2023/10/25 10:01:39;;;;;;;9.50;5.40;;;;;;;13.67;69.50;99469.27;105322;1258;63711;-60
2023/10/25 10:04:19;;;;;;;8.80;4.80;;;;;;;13.63;69.52;99464.25;104982;1256;61400;-60
2023/10/25 10:07:10;;;;;;;9.30;5.30;;;;;;;13.64;69.45;99463.89;105079;1256;64394;-59
2023/10/25 10:09:47;;;;;;;9.70;5.10;;;;;;;13.64;69.35;99457.02;104661;1257;61660;-63
2023/10/25 10:12:14;;;;;;;8.70;5.00;;;;;;;13.64;69.47;99451.39;105053;1257;60614;-60
2023/10/25 10:14:42;;;;;;;8.20;5.30;;;;;;;13.63;69.50;99450.96;104926;1258;65479;-60
2023/10/25 10:17:14;;;;;;;9.30;6.20;;;;;;;13.61;69.76;99448.81;105309;1256;61570;-61
2023/10/25 10:19:44;;;;;;;6.90;4.80;;;;;;;13.58;69.86;99445.01;105507;1256;63849;-60
2023/10/25 10:22:13;;;;;;;7.10;4.70;;;;;;;13.60;69.76;99437.29;105175;1257;60549;-59
2023/10/25 10:24:48;;;;;;;9.00;5.60;;;;;;;13.65;69.79;99433.38;106943;1260;59974;-57
2023/10/25 10:27:20;;;;;;;8.60;5.40;;;;;;;13.68;69.81;99427.33;105138;1261;65492;-58
2023/10/25 10:29:48;;;;;;;9.00;5.90;;;;;;;13.71;69.85;99422.05;105945;1262;61851;-56
2023/10/25 10:32:16;;;;;;;8.20;4.90;;;;;;;13.72;69.75;99420.73;105282;1262;71496;-57
2023/10/25 10:34:57;;;;;;;8.70;4.90;;;;;;;13.72;69.81;99419.73;105148;1256;60448;-56
2023/10/25 10:37:27;;;;;;;8.00;5.40;;;;;;;13.74;69.65;99414.14;105033;1260;60868;-56
2023/10/25 10:39:57;;;;;;;10.20;5.10;;;;;;;13.78;69.48;99407.43;105868;1260;65020;-56
2023/10/25 10:42:31;;;;;;;9.70;5.30;;;;;;;13.79;69.37;99402.94;105396;1256;60432;-57
2023/10/25 10:45:04;;;;;;;8.90;5.60;;;;;;;13.77;69.61;99396.23;105106;1260;64651;-59
2023/10/25 10:47:44;;;;;;;8.70;5.40;;;;;;;13.75;69.73;99389.74;105602;1262;60553;-61
2023/10/25 10:50:22;;;;;;;11.10;5.60;;;;;;;13.74;69.73;99388.80;105183;1262;60432;-59
2023/10/25 10:52:51;;;;;;;9.10;5.90;;;;;;;13.75;69.59;99378.95;105087;1262;65013;-55
2023/10/25 10:55:22;;;;;;;9.60;5.30;;;;;;;13.78;69.56;99375.02;105115;1256;61526;-55
2023/10/25 10:57:50;;;;;;;9.00;5.50;;;;;;;13.81;69.58;99368.16;105590;1257;63839;-55
2023/10/25 11:00:35;;;;;;;8.40;5.70;;;;;;;13.81;69.77;99364.02;106204;1260;60577;-55
2023/10/25 11:03:03;;;;;;;8.00;5.40;;;;;;;13.81;69.72;99356.30;105014;1261;60360;-54
2023/10/25 11:05:36;;;;;;;8.90;5.50;;;;;;;13.79;69.85;99347.09;105329;1258;63966;-55
2023/10/25 11:08:09;;;;;;;9.70;5.80;;;;;;;13.79;69.68;99340.34;108831;1256;60452;-58
2023/10/25 11:10:37;;;;;;;8.50;4.80;;;;;;;13.84;69.67;99332.19;108882;1257;63853;-57
2023/10/25 11:13:09;;;;;;;8.10;5.30;;;;;;;13.90;69.76;99329.95;108957;1260;58275;-55
2023/10/25 11:15:38;;;;;;;7.40;5.30;;;;;;;13.93;69.85;99322.02;108760;1256;59158;-55
2023/10/25 11:18:08;;;;;;;8.60;5.80;;;;;;;13.98;69.74;99317.15;108968;1257;67689;-55
2023/10/25 11:20:38;;;;;;;8.80;5.20;;;;;;;13.97;69.51;99318.30;108835;1259;61519;-56